createdAt,value
2023-05-21T00:00:38.312Z,6.20
2023-05-21T00:01:38.267Z,7.10
2023-05-21T00:02:38.449Z,6.50
2023-05-21T00:03:38.326Z,6.40
2023-05-21T00:04:38.256Z,7.00
2023-05-21T00:05:38.420Z,6.80
2023-05-21T00:06:38.239Z,6.80
2023-05-21T00:07:38.230Z,6.70
2023-05-21T00:08:38.189Z,7.10
2023-05-21T00:09:38.227Z,6.80
2023-05-21T00:10:38.314Z,6.50
2023-05-21T00:11:38.157Z,7.00
2023-05-21T00:12:38.159Z,6.80
2023-05-21T00:13:45.200Z,7.10
2023-05-21T00:14:38.113Z,6.90
2023-05-21T00:15:38.338Z,6.50
2023-05-21T00:16:59.122Z,6.70
2023-05-21T00:17:38.097Z,6.60
2023-05-21T00:18:38.068Z,6.80
2023-05-21T00:19:38.045Z,6.50
2023-05-21T00:20:38.157Z,7.30
2023-05-21T00:21:38.026Z,7.00
2023-05-21T00:22:38.032Z,7.10
2023-05-21T00:23:38.036Z,7.00
2023-05-21T00:24:38.012Z,7.00
2023-05-21T00:25:38.012Z,6.70
2023-05-21T00:26:38.028Z,6.60
2023-05-21T00:27:38.015Z,6.80
2023-05-21T00:28:37.952Z,6.60
2023-05-21T00:29:37.932Z,6.80
2023-05-21T00:30:37.955Z,7.20
2023-05-21T00:31:37.960Z,6.90
2023-05-21T00:32:38.029Z,7.10
2023-05-21T00:33:37.888Z,7.20
2023-05-21T00:34:37.880Z,7.70
2023-05-21T00:35:37.954Z,7.20
2023-05-21T00:36:37.887Z,7.20
2023-05-21T00:37:37.886Z,7.50
2023-05-21T00:38:37.884Z,7.20
2023-05-21T00:39:37.857Z,7.40
2023-05-21T00:40:37.829Z,6.80
2023-05-21T00:41:37.809Z,7.10
2023-05-21T00:42:37.787Z,6.60
2023-05-21T00:43:37.818Z,6.80
2023-05-21T00:44:37.787Z,7.10
2023-05-21T00:45:38.302Z,7.30
2023-05-21T00:46:37.732Z,6.90
2023-05-21T00:47:37.778Z,6.90
2023-05-21T00:48:37.761Z,7.20
2023-05-21T00:49:37.686Z,7.20
2023-05-21T00:50:37.689Z,7.10
2023-05-21T00:51:37.692Z,7.30
2023-05-21T00:52:37.693Z,7.20
2023-05-21T00:53:37.670Z,7.40
2023-05-21T00:54:37.661Z,6.80
2023-05-21T00:55:38.082Z,7.10
2023-05-21T00:56:37.761Z,7.30
2023-05-21T00:57:37.610Z,7.20
2023-05-21T00:58:37.624Z,7.10
2023-05-21T00:59:37.611Z,7.10
2023-05-21T01:00:37.616Z,7.20
2023-05-21T01:01:37.724Z,7.50
2023-05-21T01:02:37.775Z,7.00
2023-05-21T01:03:37.586Z,7.30
2023-05-21T01:04:37.528Z,7.40
2023-05-21T01:05:37.910Z,7.10
2023-05-21T01:06:37.525Z,7.50
2023-05-21T01:07:37.476Z,7.40
2023-05-21T01:08:37.476Z,7.40
2023-05-21T01:09:37.474Z,7.90
2023-05-21T01:10:37.445Z,7.50
2023-05-21T01:11:37.433Z,7.50
2023-05-21T01:12:37.467Z,7.20
2023-05-21T01:13:37.403Z,7.50
2023-05-21T01:14:37.428Z,7.50
2023-05-21T01:15:37.488Z,7.70
2023-05-21T01:16:37.448Z,7.10
2023-05-21T01:17:37.442Z,7.60
2023-05-21T01:18:37.457Z,7.50
2023-05-21T01:19:37.403Z,6.90
2023-05-21T01:20:37.333Z,7.50
2023-05-21T01:21:37.307Z,7.40
2023-05-21T01:22:37.373Z,7.30
2023-05-21T01:23:37.305Z,6.70
2023-05-21T01:24:37.279Z,7.40
2023-05-21T01:25:37.552Z,7.10
2023-05-21T01:26:37.316Z,7.40
2023-05-21T01:27:37.255Z,6.90
2023-05-21T01:28:37.243Z,7.00
2023-05-21T01:29:37.240Z,7.90
2023-05-21T01:30:37.255Z,7.10
2023-05-21T01:31:37.211Z,7.70
2023-05-21T01:32:37.338Z,7.40
2023-05-21T01:33:37.332Z,7.10
2023-05-21T01:34:37.165Z,7.10
2023-05-21T01:35:37.390Z,7.00
2023-05-21T01:36:37.143Z,7.40
2023-05-21T01:37:37.112Z,7.10
2023-05-21T01:38:37.129Z,7.30
2023-05-21T01:39:37.115Z,6.70
2023-05-21T01:40:37.127Z,6.90
2023-05-21T01:41:37.116Z,7.00
2023-05-21T01:42:37.099Z,7.20
2023-05-21T01:43:37.074Z,6.50
2023-05-21T01:44:37.105Z,6.60
2023-05-21T01:45:37.253Z,6.50
2023-05-21T01:46:37.109Z,6.40
2023-05-21T01:47:36.999Z,6.40
2023-05-21T01:48:37.039Z,6.40
2023-05-21T01:49:37.096Z,6.30
2023-05-21T01:50:36.991Z,5.50
2023-05-21T01:51:36.952Z,6.10
2023-05-21T01:52:36.959Z,6.00
2023-05-21T01:53:36.966Z,5.70
2023-05-21T01:54:36.957Z,6.10
2023-05-21T01:55:37.139Z,6.10
2023-05-21T01:56:36.961Z,6.00
2023-05-21T01:57:36.912Z,6.00
2023-05-21T01:58:36.906Z,6.20
2023-05-21T01:59:36.857Z,6.00
2023-05-21T02:00:36.874Z,5.90
2023-05-21T02:01:36.875Z,6.20
2023-05-21T02:02:36.960Z,6.30
2023-05-21T02:03:37.064Z,5.60
2023-05-21T02:04:36.815Z,5.70
2023-05-21T02:05:37.154Z,6.20
2023-05-21T02:06:36.792Z,5.70
2023-05-21T02:07:36.777Z,5.50
2023-05-21T02:08:36.767Z,5.50
2023-05-21T02:09:36.772Z,5.30
2023-05-21T02:10:36.767Z,5.80
2023-05-21T02:11:36.752Z,5.80
2023-05-21T02:12:36.737Z,5.60
2023-05-21T02:13:36.705Z,5.80
2023-05-21T02:14:36.696Z,5.50
2023-05-21T02:15:36.991Z,5.70
2023-05-21T02:16:36.750Z,5.90
2023-05-21T02:17:36.742Z,6.10
2023-05-21T02:18:36.725Z,6.10
2023-05-21T02:19:36.688Z,6.10
2023-05-21T02:20:36.662Z,6.10
2023-05-21T02:21:36.668Z,6.50
2023-05-21T02:22:36.638Z,7.20
2023-05-21T02:23:36.608Z,7.50
2023-05-21T02:24:36.609Z,7.50
2023-05-21T02:25:37.009Z,8.30
2023-05-21T02:26:36.553Z,8.20
2023-05-21T02:27:36.538Z,7.80
2023-05-21T02:28:36.625Z,7.50
2023-05-21T02:29:36.518Z,7.60
2023-05-21T02:30:36.556Z,7.70
2023-05-21T02:31:36.516Z,8.00
2023-05-21T02:32:36.549Z,7.50
2023-05-21T02:33:36.509Z,7.40
2023-05-21T02:34:36.478Z,7.50
2023-05-21T02:35:36.764Z,7.50
2023-05-21T02:36:36.454Z,7.50
2023-05-21T02:37:36.488Z,7.60
2023-05-21T02:38:36.419Z,7.20
2023-05-21T02:39:36.430Z,7.30
2023-05-21T02:40:36.420Z,7.00
2023-05-21T02:41:36.364Z,7.10
2023-05-21T02:42:36.380Z,7.20
2023-05-21T02:43:36.391Z,6.90
2023-05-21T02:44:36.377Z,7.10
2023-05-21T02:45:36.563Z,6.70
2023-05-21T02:46:36.320Z,7.00
2023-05-21T02:47:36.320Z,6.70
2023-05-21T02:48:36.292Z,6.60
2023-05-21T02:49:36.303Z,6.60
2023-05-21T02:50:36.278Z,6.70
2023-05-21T02:51:36.266Z,6.80
2023-05-21T02:52:36.344Z,6.60
2023-05-21T02:53:36.380Z,6.50
2023-05-21T02:54:36.227Z,6.70
2023-05-21T02:55:36.518Z,6.90
2023-05-21T02:56:36.249Z,7.00
2023-05-21T02:57:36.395Z,6.90
2023-05-21T02:58:36.209Z,6.80
2023-05-21T02:59:36.148Z,6.60
2023-05-21T03:00:36.178Z,6.40
2023-05-21T03:01:36.201Z,6.70
2023-05-21T03:02:36.265Z,6.30
2023-05-21T03:03:36.196Z,6.30
2023-05-21T03:04:36.100Z,7.00
2023-05-21T03:05:36.288Z,6.80
2023-05-21T03:06:36.106Z,6.80
2023-05-21T03:07:36.094Z,6.70
2023-05-21T03:08:36.201Z,6.90
2023-05-21T03:09:36.065Z,6.70
2023-05-21T03:10:36.059Z,6.80
2023-05-21T03:11:36.036Z,6.60
2023-05-21T03:12:36.038Z,6.50
2023-05-21T03:13:36.038Z,6.60
2023-05-21T03:14:36.036Z,6.50
2023-05-21T03:15:36.199Z,6.50
2023-05-21T03:16:35.992Z,6.40
2023-05-21T03:17:36.051Z,6.20
2023-05-21T03:18:35.962Z,6.80
2023-05-21T03:19:36.011Z,6.60
2023-05-21T03:20:35.989Z,6.60
2023-05-21T03:21:35.897Z,6.10
2023-05-21T03:22:35.897Z,6.70
2023-05-21T03:23:35.896Z,6.10
2023-05-21T03:24:35.877Z,6.10
2023-05-21T03:25:36.115Z,6.50
2023-05-21T03:26:35.881Z,6.30
2023-05-21T03:27:35.828Z,6.40
2023-05-21T03:28:35.831Z,6.10
2023-05-21T03:29:35.827Z,6.20
2023-05-21T03:30:35.824Z,6.20
2023-05-21T03:31:35.880Z,6.20
2023-05-21T03:32:35.833Z,6.30
2023-05-21T03:33:35.782Z,6.10
2023-05-21T03:34:35.768Z,6.60
2023-05-21T03:35:35.904Z,6.10
2023-05-21T03:36:36.692Z,6.20
2023-05-21T03:37:35.830Z,6.30
2023-05-21T03:38:37.153Z,6.00
2023-05-21T03:39:35.683Z,6.10
2023-05-21T03:40:35.684Z,6.20
2023-05-21T03:41:35.665Z,5.90
2023-05-21T03:42:35.698Z,6.00
2023-05-21T03:43:35.672Z,5.70
2023-05-21T03:44:35.645Z,6.10
2023-05-21T03:45:35.908Z,5.70
2023-05-21T03:46:35.708Z,5.90
2023-05-21T03:47:35.628Z,5.40
2023-05-21T03:48:35.632Z,5.90
2023-05-21T03:49:35.590Z,6.20
2023-05-21T03:50:35.572Z,6.20
2023-05-21T03:51:35.546Z,5.80
2023-05-21T03:52:35.587Z,5.80
2023-05-21T03:53:35.546Z,6.10
2023-05-21T03:54:35.572Z,5.60
2023-05-21T03:55:35.739Z,5.50
2023-05-21T03:56:35.505Z,6.10
2023-05-21T03:57:35.478Z,5.80
2023-05-21T03:58:35.521Z,5.60
2023-05-21T03:59:35.508Z,6.00
2023-05-21T04:00:35.452Z,5.90
2023-05-21T04:01:35.456Z,5.90
2023-05-21T04:02:35.529Z,6.00
2023-05-21T04:03:36.775Z,5.70
2023-05-21T04:04:35.452Z,6.10
2023-05-21T04:05:35.746Z,6.00
2023-05-21T04:06:35.383Z,6.00
2023-05-21T04:07:35.359Z,6.10
2023-05-21T04:08:35.390Z,6.10
2023-05-21T04:09:36.671Z,5.80
2023-05-21T04:10:35.337Z,6.00
2023-05-21T04:11:35.346Z,5.90
2023-05-21T04:12:35.335Z,5.90
2023-05-21T04:13:35.336Z,5.90
2023-05-21T04:14:35.320Z,6.00
2023-05-21T04:15:35.662Z,5.70
2023-05-21T04:16:35.545Z,5.90
2023-05-21T04:17:35.311Z,6.10
2023-05-21T04:18:35.261Z,5.80
2023-05-21T04:19:35.384Z,5.90
2023-05-21T04:20:35.217Z,6.10
2023-05-21T04:21:35.245Z,6.00
2023-05-21T04:22:35.358Z,5.50
2023-05-21T04:23:35.191Z,5.90
2023-05-21T04:24:35.174Z,5.90
2023-05-21T04:25:35.347Z,5.70
2023-05-21T04:26:35.143Z,5.50
2023-05-21T04:27:35.140Z,5.70
2023-05-21T04:28:35.183Z,6.00
2023-05-21T04:29:35.114Z,5.70
2023-05-21T04:30:35.096Z,6.00
2023-05-21T04:31:35.211Z,5.90
2023-05-21T04:32:35.156Z,5.80
2023-05-21T04:33:35.075Z,6.20
2023-05-21T04:34:35.044Z,5.90
2023-05-21T04:35:35.259Z,5.80
2023-05-21T04:36:35.206Z,6.00
2023-05-21T04:37:35.125Z,6.00
2023-05-21T04:38:35.002Z,5.60
2023-05-21T04:39:35.008Z,6.00
2023-05-21T04:40:36.934Z,5.80
2023-05-21T04:41:34.980Z,5.80
2023-05-21T04:42:35.014Z,5.40
2023-05-21T04:43:34.983Z,6.00
2023-05-21T04:44:34.961Z,5.80
2023-05-21T04:45:35.313Z,5.90
2023-05-21T04:46:35.018Z,6.50
2023-05-21T04:47:34.948Z,6.20
2023-05-21T04:48:34.925Z,5.90
2023-05-21T04:49:34.894Z,5.90
2023-05-21T04:50:34.885Z,5.80
2023-05-21T04:51:34.947Z,6.10
2023-05-21T04:52:34.881Z,6.00
2023-05-21T04:53:34.870Z,6.00
2023-05-21T04:54:34.846Z,6.10
2023-05-21T04:55:35.043Z,6.20
2023-05-21T04:56:34.796Z,5.80
2023-05-21T04:57:34.829Z,5.80
2023-05-21T04:58:34.817Z,6.40
2023-05-21T04:59:34.795Z,6.20
2023-05-21T05:00:35.179Z,6.60
2023-05-21T05:01:34.757Z,5.90
2023-05-21T05:02:34.761Z,6.40
2023-05-21T05:03:34.748Z,6.30
2023-05-21T05:04:34.703Z,6.20
2023-05-21T05:05:35.070Z,6.40
2023-05-21T05:06:34.778Z,6.00
2023-05-21T05:07:34.701Z,6.10
2023-05-21T05:08:34.687Z,6.10
2023-05-21T05:09:34.658Z,6.60
2023-05-21T05:10:34.641Z,6.30
2023-05-21T05:11:34.633Z,6.00
2023-05-21T05:12:34.737Z,6.20
2023-05-21T05:13:34.615Z,6.20
2023-05-21T05:14:34.635Z,6.30
2023-05-21T05:15:34.783Z,6.40
2023-05-21T05:16:34.631Z,6.50
2023-05-21T05:17:34.607Z,6.70
2023-05-21T05:18:34.603Z,6.60
2023-05-21T05:19:34.558Z,6.50
2023-05-21T05:20:34.516Z,6.60
2023-05-21T05:21:34.518Z,6.40
2023-05-21T05:22:34.659Z,6.70
2023-05-21T05:23:34.517Z,7.00
2023-05-21T05:24:34.492Z,6.50
2023-05-21T05:25:34.463Z,6.20
2023-05-21T05:26:34.473Z,6.80
2023-05-21T05:27:36.420Z,6.70
2023-05-21T05:28:34.474Z,6.30
2023-05-21T05:29:34.421Z,6.60
2023-05-21T05:30:34.410Z,6.10
2023-05-21T05:31:34.449Z,6.20
2023-05-21T05:32:34.413Z,6.30
2023-05-21T05:33:34.441Z,6.50
2023-05-21T05:34:34.393Z,6.60
2023-05-21T05:35:34.611Z,6.50
2023-05-21T05:36:34.398Z,6.90
2023-05-21T05:37:34.361Z,6.80
2023-05-21T05:38:34.368Z,6.90
2023-05-21T05:39:34.303Z,6.50
2023-05-21T05:40:34.305Z,6.90
2023-05-21T05:41:34.310Z,6.60
2023-05-21T05:42:34.273Z,6.60
2023-05-21T05:43:34.365Z,6.60
2023-05-21T05:44:34.254Z,7.00
2023-05-21T05:45:34.520Z,7.40
2023-05-21T05:46:34.244Z,7.00
2023-05-21T05:47:34.252Z,7.40
2023-05-21T05:48:34.198Z,7.30
2023-05-21T05:49:34.188Z,7.20
2023-05-21T05:50:34.160Z,7.20
2023-05-21T05:51:34.151Z,6.90
2023-05-21T05:52:34.131Z,7.20
2023-05-21T05:53:34.494Z,6.90
2023-05-21T05:54:34.107Z,6.90
2023-05-21T05:55:34.284Z,7.50
2023-05-21T05:56:34.105Z,8.10
2023-05-21T05:57:34.084Z,7.20
2023-05-21T05:58:34.087Z,7.60
2023-05-21T05:59:34.092Z,7.20
2023-05-21T06:00:34.065Z,7.60
2023-05-21T06:01:34.072Z,7.40
2023-05-21T06:02:34.105Z,7.20
2023-05-21T06:03:34.268Z,7.50
2023-05-21T06:04:34.034Z,7.60
2023-05-21T06:05:34.091Z,7.30
2023-05-21T06:06:33.980Z,7.40
2023-05-21T06:07:33.983Z,7.40
2023-05-21T06:08:36.068Z,7.40
2023-05-21T06:09:33.981Z,7.50
2023-05-21T06:10:33.952Z,6.90
2023-05-21T06:11:33.949Z,7.10
2023-05-21T06:12:33.928Z,7.50
2023-05-21T06:13:34.037Z,7.10
2023-05-21T06:14:33.878Z,7.00
2023-05-21T06:15:33.916Z,7.30
2023-05-21T06:16:34.135Z,6.90
2023-05-21T06:17:34.240Z,6.60
2023-05-21T06:18:33.856Z,6.50
2023-05-21T06:19:33.939Z,6.30
2023-05-21T06:20:33.804Z,6.50
2023-05-21T06:21:33.813Z,6.30
2023-05-21T06:22:33.817Z,6.50
2023-05-21T06:23:33.892Z,6.50
2023-05-21T06:24:33.760Z,6.50
2023-05-21T06:25:33.866Z,6.20
2023-05-21T06:26:33.784Z,6.60
2023-05-21T06:27:33.778Z,6.40
2023-05-21T06:28:33.741Z,5.90
2023-05-21T06:29:33.739Z,6.30
2023-05-21T06:30:33.691Z,6.40
2023-05-21T06:31:33.725Z,6.40
2023-05-21T06:32:33.945Z,6.80
2023-05-21T06:33:33.807Z,6.50
2023-05-21T06:34:33.650Z,6.40
2023-05-21T06:35:33.676Z,6.90
2023-05-21T06:36:33.709Z,7.20
2023-05-21T06:37:33.621Z,6.70
2023-05-21T06:38:33.620Z,6.40
2023-05-21T06:39:33.607Z,6.60
2023-05-21T06:40:33.605Z,6.80
2023-05-21T06:41:33.631Z,7.00
2023-05-21T06:42:33.594Z,6.90
2023-05-21T06:43:33.551Z,7.00
2023-05-21T06:44:33.571Z,7.10
2023-05-21T06:45:33.599Z,7.60
2023-05-21T06:46:33.640Z,7.30
2023-05-21T06:47:33.552Z,7.20
2023-05-21T06:48:33.518Z,7.60
2023-05-21T06:49:33.534Z,7.50
2023-05-21T06:50:33.504Z,7.50
2023-05-21T06:51:33.522Z,7.60
2023-05-21T06:52:33.458Z,7.70
2023-05-21T06:53:33.446Z,7.50
2023-05-21T06:54:33.444Z,7.30
2023-05-21T06:55:33.463Z,7.60
2023-05-21T06:56:33.434Z,7.70
2023-05-21T06:57:33.397Z,7.40
2023-05-21T06:58:33.445Z,7.20
2023-05-21T06:59:33.393Z,7.30
2023-05-21T07:00:33.348Z,7.30
2023-05-21T07:01:33.376Z,6.60
2023-05-21T07:02:33.424Z,6.60
2023-05-21T07:03:33.427Z,6.50
2023-05-21T07:04:33.346Z,7.10
2023-05-21T07:05:33.296Z,6.90
2023-05-21T07:06:33.336Z,6.80
2023-05-21T07:07:33.298Z,7.10
2023-05-21T07:08:33.367Z,6.70
2023-05-21T07:09:33.278Z,7.00
2023-05-21T07:10:33.223Z,6.10
2023-05-21T07:11:33.255Z,6.40
2023-05-21T07:12:33.249Z,6.30
2023-05-21T07:13:33.661Z,6.60
2023-05-21T07:14:33.201Z,6.50
2023-05-21T07:15:33.199Z,6.30
2023-05-21T07:16:33.235Z,6.20
2023-05-21T07:17:33.189Z,6.40
2023-05-21T07:18:33.157Z,6.40
2023-05-21T07:19:33.243Z,6.40
2023-05-21T07:20:33.137Z,6.70
2023-05-21T07:21:33.110Z,6.50
2023-05-21T07:22:33.117Z,6.60
2023-05-21T07:23:33.115Z,6.40
2023-05-21T07:24:33.094Z,6.70
2023-05-21T07:25:33.086Z,6.50
2023-05-21T07:26:33.043Z,5.80
2023-05-21T07:27:33.044Z,6.40
2023-05-21T07:28:33.079Z,6.20
2023-05-21T07:29:33.044Z,6.10
2023-05-21T07:30:32.991Z,6.10
2023-05-21T07:31:33.084Z,6.10
2023-05-21T07:32:33.037Z,6.30
2023-05-21T07:33:33.015Z,6.20
2023-05-21T07:34:32.961Z,6.20
2023-05-21T07:35:32.976Z,6.20
2023-05-21T07:36:32.995Z,6.40
2023-05-21T07:37:33.007Z,6.30
2023-05-21T07:38:32.916Z,5.80
2023-05-21T07:39:32.907Z,6.40
2023-05-21T07:40:32.894Z,6.00
2023-05-21T07:41:32.981Z,6.10
2023-05-21T07:42:32.863Z,6.20
2023-05-21T07:43:32.906Z,6.30
2023-05-21T07:44:32.869Z,6.50
2023-05-21T07:45:32.881Z,6.10
2023-05-21T07:46:32.844Z,5.80
2023-05-21T07:47:32.944Z,6.30
2023-05-21T07:48:35.359Z,6.40
2023-05-21T07:49:32.822Z,6.40
2023-05-21T07:50:32.805Z,6.60
2023-05-21T07:51:32.775Z,6.60
2023-05-21T07:52:32.855Z,6.30
2023-05-21T07:53:32.753Z,6.50
2023-05-21T07:54:32.748Z,6.40
2023-05-21T07:55:32.766Z,6.40
2023-05-21T07:56:32.716Z,6.20
2023-05-21T07:57:32.736Z,6.30
2023-05-21T07:58:32.740Z,6.30
2023-05-21T07:59:32.710Z,5.80
2023-05-21T08:00:32.662Z,6.20
2023-05-21T08:01:32.657Z,6.20
2023-05-21T08:02:32.712Z,6.20
2023-05-21T08:03:32.762Z,6.30
2023-05-21T08:04:32.735Z,6.70
2023-05-21T08:05:32.608Z,6.20
2023-05-21T08:06:32.595Z,6.60
2023-05-21T08:07:32.616Z,6.70
2023-05-21T08:08:34.279Z,6.50
2023-05-21T08:09:32.616Z,6.80
2023-05-21T08:10:32.540Z,6.30
2023-05-21T08:11:32.568Z,6.60
2023-05-21T08:12:32.668Z,6.30
2023-05-21T08:13:32.553Z,6.40
2023-05-21T08:14:32.494Z,6.30
2023-05-21T08:15:32.523Z,6.50
2023-05-21T08:16:32.523Z,6.30
2023-05-21T08:17:32.512Z,6.60
2023-05-21T08:18:32.677Z,6.40
2023-05-21T08:19:32.577Z,6.50
2023-05-21T08:20:32.436Z,6.20
2023-05-21T08:21:32.455Z,6.50
2023-05-21T08:22:32.433Z,6.50
2023-05-21T08:23:32.435Z,7.00
2023-05-21T08:24:32.495Z,6.40
2023-05-21T08:25:32.406Z,6.10
2023-05-21T08:26:32.357Z,6.30
2023-05-21T08:27:32.413Z,6.40
2023-05-21T08:28:32.344Z,6.10
2023-05-21T08:29:32.373Z,6.50
2023-05-21T08:30:32.572Z,6.00
2023-05-21T08:31:32.321Z,6.30
2023-05-21T08:32:32.394Z,6.60
2023-05-21T08:33:32.287Z,6.40
2023-05-21T08:34:32.302Z,6.40
2023-05-21T08:35:32.433Z,6.30
2023-05-21T08:36:32.287Z,6.40
2023-05-21T08:37:32.253Z,6.20
2023-05-21T08:38:32.249Z,6.40
2023-05-21T08:39:32.246Z,6.20
2023-05-21T08:40:32.234Z,6.60
2023-05-21T08:41:32.242Z,6.30
2023-05-21T08:42:37.056Z,6.20
2023-05-21T08:43:33.164Z,6.40
2023-05-21T08:44:32.187Z,6.10
2023-05-21T08:45:33.884Z,6.60
2023-05-21T08:46:32.183Z,6.30
2023-05-21T08:47:32.245Z,6.40
2023-05-21T08:48:32.137Z,6.70
2023-05-21T08:49:32.126Z,6.70
2023-05-21T08:50:32.099Z,6.50
2023-05-21T08:51:32.099Z,6.40
2023-05-21T08:52:32.088Z,6.90
2023-05-21T08:53:33.785Z,7.00
2023-05-21T08:54:32.052Z,6.80
2023-05-21T08:55:32.050Z,6.60
2023-05-21T08:56:32.094Z,6.20
2023-05-21T08:57:32.028Z,6.70
2023-05-21T08:58:32.008Z,6.80
2023-05-21T08:59:32.013Z,6.60
2023-05-21T09:00:31.977Z,6.50
2023-05-21T09:01:32.039Z,6.80
2023-05-21T09:02:32.097Z,7.50
2023-05-21T09:03:32.071Z,7.20
2023-05-21T09:04:31.972Z,7.00
2023-05-21T09:05:31.932Z,7.20
2023-05-21T09:06:32.092Z,6.60
2023-05-21T09:07:32.613Z,7.10
2023-05-21T09:08:31.919Z,6.80
2023-05-21T09:09:31.865Z,7.20
2023-05-21T09:10:31.881Z,6.80
2023-05-21T09:11:32.849Z,6.80
2023-05-21T09:12:32.740Z,7.20
2023-05-21T09:13:32.685Z,7.20
2023-05-21T09:14:32.821Z,6.90
2023-05-21T09:15:32.721Z,6.90
2023-05-21T09:16:32.641Z,7.60
2023-05-21T09:17:32.847Z,7.40
2023-05-21T09:18:32.682Z,6.60
2023-05-21T09:19:32.776Z,6.80
2023-05-21T09:20:32.753Z,7.40
2023-05-21T09:21:32.658Z,6.90
2023-05-21T09:22:32.823Z,6.70
2023-05-21T09:23:31.716Z,6.80
2023-05-21T09:24:33.629Z,7.20
2023-05-21T09:25:32.531Z,7.20
2023-05-21T09:26:31.728Z,7.20
2023-05-21T09:27:32.594Z,7.40
2023-05-21T09:28:31.746Z,7.50
2023-05-21T09:29:31.650Z,7.20
2023-05-21T09:30:33.397Z,7.40
2023-05-21T09:31:32.518Z,7.20
2023-05-21T09:32:31.797Z,7.70
2023-05-21T09:33:31.656Z,7.80
2023-05-21T09:34:32.442Z,7.70
2023-05-21T09:35:32.605Z,8.00
2023-05-21T09:36:31.617Z,8.00
2023-05-21T09:37:32.402Z,7.60
2023-05-21T09:38:32.591Z,8.00
2023-05-21T09:39:32.465Z,7.90
2023-05-21T09:40:31.570Z,7.20
2023-05-21T09:41:31.527Z,7.50
2023-05-21T09:42:32.426Z,7.90
2023-05-21T09:43:31.509Z,7.80
2023-05-21T09:44:32.529Z,8.10
2023-05-21T09:45:32.401Z,7.90
2023-05-21T09:46:31.566Z,7.70
2023-05-21T09:47:31.649Z,8.00
2023-05-21T09:48:32.365Z,8.00
2023-05-21T09:49:31.771Z,8.40
2023-05-21T09:50:32.448Z,8.10
2023-05-21T09:51:31.419Z,7.60
2023-05-21T09:52:31.424Z,8.00
2023-05-21T09:53:32.411Z,7.70
2023-05-21T09:54:31.399Z,8.20
2023-05-21T09:55:32.204Z,7.90
2023-05-21T09:56:31.446Z,7.80
2023-05-21T09:57:31.334Z,8.40
2023-05-21T09:58:31.359Z,8.10
2023-05-21T09:59:31.288Z,8.20
2023-05-21T10:00:31.300Z,7.60
2023-05-21T10:01:31.303Z,8.20
2023-05-21T10:02:31.360Z,7.90
2023-05-21T10:03:31.290Z,7.80
2023-05-21T10:04:31.250Z,8.10
2023-05-21T10:05:31.258Z,7.70
2023-05-21T10:06:31.228Z,7.90
2023-05-21T10:07:31.235Z,7.50
2023-05-21T10:08:31.206Z,7.90
2023-05-21T10:09:31.198Z,8.50
2023-05-21T10:10:31.209Z,7.80
2023-05-21T10:11:31.195Z,8.40
2023-05-21T10:12:31.203Z,8.10
2023-05-21T10:13:31.155Z,8.20
2023-05-21T10:14:31.132Z,7.70
2023-05-21T10:15:31.151Z,8.40
2023-05-21T10:16:31.155Z,8.10
2023-05-21T10:17:31.229Z,7.90
2023-05-21T10:18:31.109Z,8.20
2023-05-21T10:19:31.138Z,8.50
2023-05-21T10:20:31.136Z,8.10
2023-05-21T10:21:31.026Z,8.00
2023-05-21T10:22:31.039Z,8.10
2023-05-21T10:23:31.045Z,7.90
2023-05-21T10:24:31.007Z,8.30
2023-05-21T10:25:30.993Z,8.70
2023-05-21T10:26:31.067Z,8.40
2023-05-21T10:27:32.491Z,8.30
2023-05-21T10:28:31.004Z,8.30
2023-05-21T10:29:30.961Z,8.20
2023-05-21T10:30:30.939Z,8.60
2023-05-21T10:31:30.961Z,9.20
2023-05-21T10:32:31.031Z,8.60
2023-05-21T10:33:31.042Z,8.70
2023-05-21T10:34:30.915Z,7.90
2023-05-21T10:35:30.927Z,8.70
2023-05-21T10:36:30.874Z,8.30
2023-05-21T10:37:30.987Z,8.60
2023-05-21T10:38:30.875Z,8.70
2023-05-21T10:39:30.846Z,8.50
2023-05-21T10:40:30.856Z,8.00
2023-05-21T10:41:30.811Z,8.30
2023-05-21T10:42:30.809Z,8.70
2023-05-21T10:43:30.796Z,8.60
2023-05-21T10:44:30.798Z,8.50
2023-05-21T10:45:30.781Z,9.10
2023-05-21T10:46:30.769Z,8.40
2023-05-21T10:47:30.772Z,9.30
2023-05-21T10:48:30.753Z,8.30
2023-05-21T10:49:30.710Z,8.40
2023-05-21T10:50:30.729Z,8.60
2023-05-21T10:51:30.732Z,8.60
2023-05-21T10:52:30.679Z,8.70
2023-05-21T10:53:30.689Z,8.40
2023-05-21T10:54:30.685Z,9.10
2023-05-21T10:55:30.632Z,8.70
2023-05-21T10:56:30.709Z,8.20
2023-05-21T10:57:30.640Z,8.50
2023-05-21T10:58:30.649Z,9.00
2023-05-21T10:59:30.586Z,8.30
2023-05-21T11:00:30.618Z,8.40
2023-05-21T11:01:30.634Z,8.50
2023-05-21T11:02:30.660Z,8.30
2023-05-21T11:03:30.663Z,8.30
2023-05-21T11:04:30.577Z,8.00
2023-05-21T11:05:30.515Z,8.10
2023-05-21T11:06:30.544Z,8.00
2023-05-21T11:07:30.520Z,8.40
2023-05-21T11:08:30.528Z,8.80
2023-05-21T11:09:30.493Z,8.30
2023-05-21T11:10:30.496Z,7.90
2023-05-21T11:11:30.469Z,8.50
2023-05-21T11:12:30.491Z,8.00
2023-05-21T11:13:30.422Z,8.50
2023-05-21T11:14:30.463Z,7.90
2023-05-21T11:15:30.399Z,8.60
2023-05-21T11:16:30.469Z,8.40
2023-05-21T11:17:30.463Z,8.60
2023-05-21T11:18:30.391Z,8.30
2023-05-21T11:19:32.545Z,8.40
2023-05-21T11:20:30.359Z,8.80
2023-05-21T11:21:30.369Z,8.30
2023-05-21T11:22:30.331Z,8.80
2023-05-21T11:23:30.332Z,8.60
2023-05-21T11:24:30.402Z,8.70
2023-05-21T11:25:30.285Z,8.20
2023-05-21T11:26:30.314Z,8.20
2023-05-21T11:27:30.285Z,8.80
2023-05-21T11:28:30.287Z,8.60
2023-05-21T11:29:30.308Z,8.80
2023-05-21T11:30:30.333Z,8.60
2023-05-21T11:31:30.227Z,8.40
2023-05-21T11:32:30.289Z,8.30
2023-05-21T11:33:30.195Z,8.80
2023-05-21T11:34:30.195Z,8.40
2023-05-21T11:35:30.165Z,8.90
2023-05-21T11:36:30.263Z,8.60
2023-05-21T11:37:30.170Z,8.30
2023-05-21T11:38:30.140Z,8.50
2023-05-21T11:39:30.215Z,9.10
2023-05-21T11:40:30.158Z,8.80
2023-05-21T11:41:30.112Z,8.20
2023-05-21T11:42:30.180Z,8.50
2023-05-21T11:43:30.074Z,8.50
2023-05-21T11:44:30.102Z,8.50
2023-05-21T11:45:30.087Z,9.30
2023-05-21T11:46:30.109Z,8.50
2023-05-21T11:47:30.142Z,8.80
2023-05-21T11:48:32.386Z,8.90
2023-05-21T11:49:30.018Z,8.70
2023-05-21T11:50:30.065Z,8.70
2023-05-21T11:51:30.018Z,8.90
2023-05-21T11:52:30.010Z,8.50
2023-05-21T11:53:30.022Z,9.10
2023-05-21T11:54:29.965Z,8.70
2023-05-21T11:55:29.965Z,8.10
2023-05-21T11:56:29.947Z,8.80
2023-05-21T11:57:29.949Z,8.40
2023-05-21T11:58:29.948Z,7.80
2023-05-21T11:59:29.894Z,8.10
2023-05-21T12:00:29.899Z,8.50
2023-05-21T12:01:29.896Z,8.50
2023-05-21T12:02:29.974Z,8.60
2023-05-21T12:03:30.012Z,8.70
2023-05-21T12:04:29.883Z,8.60
2023-05-21T12:05:29.834Z,8.90
2023-05-21T12:06:29.886Z,8.70
2023-05-21T12:07:29.836Z,8.60
2023-05-21T12:08:29.991Z,8.70
2023-05-21T12:09:29.810Z,8.60
2023-05-21T12:10:29.855Z,8.90
2023-05-21T12:11:29.755Z,8.40
2023-05-21T12:12:38.856Z,8.40
2023-05-21T12:13:30.736Z,8.50
2023-05-21T12:14:29.820Z,8.50
2023-05-21T12:15:36.824Z,8.70
2023-05-21T12:16:29.728Z,8.10
2023-05-21T12:17:29.737Z,8.50
2023-05-21T12:18:29.717Z,8.40
2023-05-21T12:19:29.766Z,8.50
2023-05-21T12:20:29.743Z,8.20
2023-05-21T12:21:29.653Z,8.50
2023-05-21T12:22:29.673Z,8.70
2023-05-21T12:23:29.620Z,8.40
2023-05-21T12:24:29.653Z,9.30
2023-05-21T12:25:29.632Z,8.30
2023-05-21T12:26:29.606Z,8.40
2023-05-21T12:27:29.598Z,8.30
2023-05-21T12:28:29.579Z,8.60
2023-05-21T12:29:29.585Z,8.40
2023-05-21T12:30:29.595Z,8.40
2023-05-21T12:31:29.637Z,8.60
2023-05-21T12:32:29.626Z,8.70
2023-05-21T12:33:29.518Z,8.80
2023-05-21T12:34:29.535Z,8.70
2023-05-21T12:35:29.550Z,8.90
2023-05-21T12:36:29.555Z,8.40
2023-05-21T12:37:29.500Z,8.50
2023-05-21T12:38:29.497Z,8.90
2023-05-21T12:39:29.444Z,8.60
2023-05-21T12:40:29.473Z,9.70
2023-05-21T12:41:29.451Z,9.50
2023-05-21T12:42:29.551Z,8.70
2023-05-21T12:43:29.419Z,9.20
2023-05-21T12:44:29.428Z,9.00
2023-05-21T12:45:29.383Z,8.70
2023-05-21T12:46:29.443Z,8.50
2023-05-21T12:47:29.402Z,8.30
2023-05-21T12:48:29.514Z,8.70
2023-05-21T12:49:29.359Z,8.40
2023-05-21T12:50:29.316Z,8.80
2023-05-21T12:51:29.344Z,8.90
2023-05-21T12:52:29.312Z,8.50
2023-05-21T12:53:29.295Z,8.90
2023-05-21T12:54:29.400Z,8.80
2023-05-21T12:55:29.277Z,8.40
2023-05-21T12:56:29.254Z,8.80
2023-05-21T12:57:29.271Z,9.40
2023-05-21T12:58:29.233Z,8.80
2023-05-21T12:59:29.298Z,9.20
2023-05-21T13:00:29.191Z,8.60
2023-05-21T13:01:29.231Z,8.40
2023-05-21T13:02:29.214Z,9.00
2023-05-21T13:03:29.223Z,9.00
2023-05-21T13:04:29.253Z,8.80
2023-05-21T13:05:29.178Z,9.40
2023-05-21T13:06:29.138Z,9.20
2023-05-21T13:07:29.165Z,8.80
2023-05-21T13:08:29.174Z,8.80
2023-05-21T13:09:29.115Z,9.00
2023-05-21T13:10:29.199Z,9.10
2023-05-21T13:11:29.083Z,8.70
2023-05-21T13:12:29.068Z,9.10
2023-05-21T13:13:29.062Z,8.90
2023-05-21T13:14:29.044Z,8.60
2023-05-21T13:15:29.163Z,8.70
2023-05-21T13:16:29.207Z,8.70
2023-05-21T13:17:29.138Z,8.30
2023-05-21T13:18:29.059Z,8.70